ADDS METAR Data INFO
IDs: Format: Raw Decoded Include TAF

Data at: 1243 UTC 19 Oct 2017

KASW 191235Z AUTO 25006KT 10SM CLR 11/08 A3012 RMK AO2
KASW 191215Z AUTO 24006KT 10SM CLR 11/08 A3012 RMK AO2
KASW 191155Z AUTO 23005KT 10SM CLR 12/08 A3012 RMK AO2
KASW 191135Z AUTO 23005KT 10SM CLR 12/08 A3012 RMK AO2
KASW 191115Z AUTO 24007KT 10SM CLR 12/08 A3011 RMK AO2
KASW 191055Z AUTO 24007KT 10SM CLR 12/08 A3011 RMK AO2
KASW 191035Z AUTO 24008KT 10SM CLR 12/08 A3010 RMK AO2
KASW 191015Z AUTO 24006KT 10SM CLR 12/08 A3010 RMK AO2
KASW 190955Z AUTO 24008KT 10SM CLR 12/07 A3010 RMK AO2
KASW 190935Z AUTO 24006KT 10SM CLR 13/07 A3009 RMK AO2
KASW 190915Z AUTO 23005KT 10SM CLR 13/07 A3009 RMK AO2
KASW 190855Z AUTO 23006KT 10SM CLR 13/07 A3009 RMK AO2
KASW 190835Z AUTO 22006KT 10SM CLR 13/07 A3009 RMK AO2
KASW 190815Z AUTO 23005KT 10SM CLR 13/07 A3009 RMK AO2
KASW 190755Z AUTO 23005KT 10SM CLR 13/07 A3010 RMK AO2
KASW 190735Z AUTO 22007KT 197V257 10SM CLR 13/07 A3010 RMK AO2
KASW 190715Z AUTO 23007KT 10SM CLR 13/07 A3011 RMK AO2
KASW 190655Z AUTO 22006KT 10SM CLR 13/07 A3010 RMK AO2
KASW 190635Z AUTO 22003KT 10SM CLR 13/07 A3011 RMK AO2
KASW 190615Z AUTO 00000KT 10SM CLR 13/07 A3011 RMK AO2
KASW 190555Z AUTO 21004KT 10SM CLR 13/07 A3011 RMK AO2
KASW 190535Z AUTO 23003KT 10SM CLR 13/07 A3012 RMK AO2
KASW 190515Z AUTO 00000KT 10SM CLR 13/07 A3012 RMK AO2
KASW 190455Z AUTO 00000KT 10SM CLR 13/07 A3011 RMK AO2
KASW 190435Z AUTO 00000KT 10SM CLR 13/07 A3012 RMK AO2
KASW 190415Z AUTO 22004KT 10SM CLR 13/06 A3012 RMK AO2
KASW 190355Z AUTO 21004KT 10SM CLR 13/06 A3013 RMK AO2
KASW 190335Z AUTO 21004KT 10SM CLR 13/06 A3012 RMK AO2
KASW 190315Z AUTO 22003KT 10SM CLR 13/06 A3012 RMK AO2
KASW 190255Z AUTO 21005KT 10SM CLR 13/06 A3012 RMK AO2
KASW 190235Z AUTO 21004KT 10SM CLR 13/06 A3012 RMK AO2
KASW 190215Z AUTO 00000KT 10SM CLR 13/06 A3012 RMK AO2
KASW 190155Z AUTO 00000KT 10SM CLR 14/06 A3012 RMK AO2
KASW 190135Z AUTO 00000KT 10SM CLR 14/06 A3011 RMK AO2
KASW 190115Z AUTO 19004KT 10SM CLR 14/06 A3011 RMK AO2
KASW 190055Z AUTO 00000KT 10SM CLR 15/06 A3011 RMK AO2
KASW 190035Z AUTO 00000KT 10SM CLR 15/06 A3011 RMK AO2
KASW 190015Z AUTO 00000KT 10SM CLR 15/05 A3012 RMK AO2
KASW 182355Z AUTO 00000KT 10SM CLR 16/05 A3012 RMK AO2
KASW 182335Z AUTO 18004KT 10SM CLR 16/05 A3011 RMK AO2
KASW 182315Z AUTO 00000KT 10SM CLR 16/05 A3011 RMK AO2
KASW 182255Z AUTO 19004KT 10SM CLR 17/05 A3011 RMK AO2
KASW 182235Z AUTO 19004KT 10SM CLR 18/05 A3011 RMK AO2
KASW 182215Z AUTO 19005KT 10SM CLR 18/05 A3012 RMK AO2
KASW 182155Z AUTO 19003KT 10SM CLR 18/05 A3012 RMK AO2
KASW 182135Z AUTO 20007KT 10SM CLR 19/05 A3012 RMK AO2
KASW 182115Z AUTO 19007KT 147V207 10SM CLR 20/05 A3012 RMK AO2
KASW 182055Z AUTO 21006KT 147V247 10SM CLR 20/04 A3013 RMK AO2
KASW 182035Z AUTO 20008KT 177V247 10SM CLR 20/04 A3014 RMK AO2
KASW 182015Z AUTO 19006KT 10SM CLR 20/04 A3014 RMK AO2
KASW 181955Z AUTO 19007KT 10SM CLR 20/04 A3014 RMK AO2
KASW 181935Z AUTO 20006KT 10SM CLR 20/05 A3015 RMK AO2
KASW 181915Z AUTO 20008KT 157V227 10SM CLR 19/05 A3016 RMK AO2
KASW 181855Z AUTO 20004KT 10SM CLR 19/06 A3017 RMK AO2
KASW 181835Z AUTO 20007KT 10SM CLR 19/05 A3017 RMK AO2
KASW 181815Z AUTO 20007KT 10SM CLR 18/05 A3019 RMK AO2
KASW 181755Z AUTO 19009KT 137V217 10SM CLR 18/05 A3020 RMK AO2
KASW 181735Z AUTO 21004KT 10SM CLR 18/06 A3021 RMK AO2
KASW 181715Z AUTO 21005KT 10SM CLR 17/06 A3021 RMK AO2
KASW 181655Z AUTO 21007KT 10SM CLR 17/06 A3022 RMK AO2
KASW 181635Z AUTO 21007KT 167V237 10SM CLR 17/06 A3023 RMK AO2
KASW 181615Z AUTO 20006KT 10SM CLR 16/06 A3024 RMK AO2
KASW 181555Z AUTO 21007KT 10SM CLR 16/06 A3025 RMK AO2
KASW 181535Z AUTO 21008KT 177V257 10SM CLR 15/06 A3025 RMK AO2
KASW 181515Z AUTO 21004KT 10SM CLR 15/07 A3025 RMK AO2
KASW 181455Z AUTO 23004KT 10SM CLR 13/06 A3025 RMK AO2
KASW 181435Z AUTO 19005KT 10SM CLR 13/06 A3025 RMK AO2
KASW 181415Z AUTO 19005KT 10SM CLR 11/06 A3025 RMK AO2
KASW 181355Z AUTO 20004KT 10SM CLR 11/06 A3025 RMK AO2
KASW 181335Z AUTO 20004KT 10SM CLR 10/05 A3025 RMK AO2
KASW 181315Z AUTO 20003KT 10SM CLR 09/05 A3025 RMK AO2
KASW 181255Z AUTO 00000KT 10SM CLR 08/05 A3024 RMK AO2
KASW 181235Z AUTO 00000KT 10SM CLR 08/05 A3024 RMK AO2
KASW 181215Z AUTO 00000KT 10SM CLR 07/04 A3024 RMK AO2
KASW 181155Z AUTO 00000KT 10SM CLR 07/04 A3024 RMK AO2
KASW 181135Z AUTO 00000KT 10SM CLR 07/04 A3025 RMK AO2
KASW 181115Z AUTO 00000KT 10SM CLR 07/04 A3025 RMK AO2
KASW 181055Z AUTO 00000KT 10SM CLR 07/04 A3025 RMK AO2
KASW 181035Z AUTO 00000KT 10SM CLR 08/04 A3025 RMK AO2
KASW 181015Z AUTO 00000KT 10SM CLR 08/04 A3025 RMK AO2
KASW 180955Z AUTO 00000KT 10SM CLR 08/04 A3024 RMK AO2
KASW 180935Z AUTO 00000KT 10SM CLR 08/04 A3024 RMK AO2
KASW 180915Z AUTO 00000KT 10SM CLR 08/04 A3023 RMK AO2
KASW 180855Z AUTO 00000KT 10SM CLR 07/03 A3023 RMK AO2
KASW 180835Z AUTO 00000KT 10SM CLR 06/04 A3023 RMK AO2
KASW 180815Z AUTO 00000KT 10SM CLR 06/03 A3022 RMK AO2
KASW 180755Z AUTO 00000KT 10SM CLR 06/04 A3023 RMK AO2
KASW 180735Z AUTO 00000KT 10SM CLR 07/03 A3023 RMK AO2
KASW 180715Z AUTO 00000KT 10SM CLR 08/04 A3022 RMK AO2
KASW 180655Z AUTO 00000KT 10SM CLR 08/04 A3022 RMK AO2
KASW 180635Z AUTO 00000KT 10SM CLR 08/04 A3022 RMK AO2
KASW 180615Z AUTO 00000KT 10SM CLR 08/04 A3022 RMK AO2
KASW 180555Z AUTO 00000KT 10SM CLR 09/04 A3022 RMK AO2
KASW 180535Z AUTO 00000KT 10SM CLR 09/04 A3022 RMK AO2
KASW 180515Z AUTO 00000KT 10SM CLR 09/04 A3022 RMK AO2
KASW 180455Z AUTO 00000KT 10SM CLR 10/04 A3022 RMK AO2
KASW 180435Z AUTO 00000KT 10SM CLR 10/04 A3023 RMK AO2
KASW 180415Z AUTO 00000KT 10SM CLR 10/04 A3023 RMK AO2
KASW 180355Z AUTO 00000KT 10SM CLR 10/05 A3023 RMK AO2
KASW 180335Z AUTO 00000KT 10SM CLR 10/05 A3023 RMK AO2
KASW 180315Z AUTO 00000KT 10SM CLR 11/05 A3023 RMK AO2
KASW 180255Z AUTO 00000KT 10SM CLR 12/05 A3023 RMK AO2
KASW 180235Z AUTO 00000KT 10SM CLR 12/05 A3023 RMK AO2
KASW 180215Z AUTO 00000KT 10SM CLR 12/05 A3022 RMK AO2
KASW 180155Z AUTO 21003KT 10SM CLR 13/05 A3021 RMK AO2
KASW 180135Z AUTO 00000KT 10SM CLR 13/05 A3021 RMK AO2
KASW 180115Z AUTO 21003KT 10SM CLR 13/05 A3020 RMK AO2
KASW 180055Z AUTO 21003KT 10SM CLR 14/05 A3020 RMK AO2